Wood, Iowa
Current Conditions -  °F | °C
As of 3:55 PM on Thursday 27 Nov 2014 (Local Time) from KPDC Reporting Station
Clear Clear  
Wind Chill: -15°   Ceiling: Unl
Heat Index: -9°   Visibility: 10mi
Dew Point: -20°   Wind: 8mph
Humidity: 44%   Direction: 290°WNW
Pressure: 30.45"   Gusts: NA
Location:  42.6679°N, 91.3801°W
Report Text: KPDC 272155Z AUTO 29007KT 10SM CLR M09/M20 A3045 RMK AO2 T10921196
Loading
Personal Weather Stations






























Interactive Weather Map New forecast layout! Learn more

10-Day Weather Forecast

Advertisements
Track Severe Weather on mobile